createdAt,value
2019-01-31T00:00:17.590Z,93214.69
2019-01-31T00:03:25.082Z,93222.06
2019-01-31T00:06:07.436Z,93224.37
2019-01-31T00:09:29.898Z,93222.41
2019-01-31T00:12:07.988Z,93224.40
2019-01-31T00:15:04.613Z,93222.82
2019-01-31T00:18:17.874Z,93224.40
2019-01-31T00:21:05.749Z,93230.16
2019-01-31T00:24:24.427Z,93247.23
2019-01-31T00:27:43.518Z,93249.48
2019-01-31T00:30:44.740Z,93257.25
2019-01-31T00:33:37.282Z,93255.73
2019-01-31T00:36:30.310Z,93256.57
2019-01-31T00:39:17.852Z,93261.38
2019-01-31T00:42:18.113Z,93259.77
2019-01-31T00:45:37.831Z,93257.52
2019-01-31T00:48:41.919Z,93256.84
2019-01-31T00:51:46.821Z,93257.30
2019-01-31T00:54:51.540Z,93259.99
2019-01-31T00:57:53.143Z,93263.75
2019-01-31T01:00:42.042Z,93266.98
2019-01-31T01:03:43.083Z,93264.79
2019-01-31T01:06:27.084Z,93264.25
2019-01-31T01:09:34.690Z,93259.10
2019-01-31T01:12:41.361Z,93260.38
2019-01-31T01:15:56.641Z,93251.98
2019-01-31T01:18:38.644Z,93254.23
2019-01-31T01:21:44.649Z,93253.60
2019-01-31T01:24:49.989Z,93247.87
2019-01-31T01:28:10.323Z,93252.84
2019-01-31T01:31:17.915Z,93244.02
2019-01-31T01:34:06.310Z,93241.91
2019-01-31T01:36:48.204Z,93239.97
2019-01-31T01:40:01.500Z,93235.20
2019-01-31T01:43:13.411Z,93241.63
2019-01-31T01:46:21.884Z,93238.91
2019-01-31T01:49:19.290Z,93244.40
2019-01-31T01:52:20.343Z,93238.53
2019-01-31T01:55:12.851Z,93240.31
2019-01-31T02:01:49.660Z,93239.97
2019-01-31T02:04:53.105Z,93246.06
2019-01-31T02:08:02.696Z,93247.31
2019-01-31T02:10:57.066Z,93254.25
2019-01-31T02:13:44.910Z,93250.07
2019-01-31T02:16:38.315Z,93256.51
2019-01-31T02:19:38.162Z,93252.67
2019-01-31T02:22:27.175Z,93256.98
2019-01-31T02:25:06.298Z,93248.33
2019-01-31T02:28:24.902Z,93253.30
2019-01-31T02:31:31.247Z,93251.23
2019-01-31T02:34:37.456Z,93256.67
2019-01-31T02:37:16.147Z,93254.59
2019-01-31T02:40:24.939Z,93252.83
2019-01-31T02:43:13.292Z,93253.80
2019-01-31T02:46:18.393Z,93261.82
2019-01-31T02:49:09.438Z,93257.81
2019-01-31T02:52:18.667Z,93255.87
2019-01-31T02:55:08.224Z,93249.95
2019-01-31T02:58:27.531Z,93251.88
2019-01-31T03:01:26.249Z,93246.41
2019-01-31T03:04:35.162Z,93239.52
2019-01-31T03:07:28.989Z,93242.70
2019-01-31T03:10:17.439Z,93238.88
2019-01-31T03:13:23.278Z,93238.55
2019-01-31T03:16:33.027Z,93235.19
2019-01-31T03:19:44.378Z,93234.39
2019-01-31T03:22:41.221Z,93236.80
2019-01-31T03:25:41.088Z,93232.46
2019-01-31T03:28:47.136Z,93235.17
2019-01-31T03:31:53.911Z,93233.09
2019-01-31T03:34:51.354Z,93243.98
2019-01-31T03:37:53.705Z,93245.42
2019-01-31T03:40:51.151Z,93240.27
2019-01-31T03:43:38.578Z,93250.00
2019-01-31T03:46:40.341Z,93255.75
2019-01-31T03:49:20.785Z,93249.84
2019-01-31T03:52:10.950Z,93246.52
2019-01-31T03:55:32.440Z,93256.66
2019-01-31T03:58:24.808Z,93253.76
2019-01-31T04:01:43.203Z,93248.00
2019-01-31T04:04:23.990Z,93244.02
2019-01-31T04:06:53.394Z,93234.20
2019-01-31T04:09:22.778Z,93226.83
2019-01-31T04:11:53.081Z,93226.80
2019-01-31T04:14:22.502Z,93221.36
2019-01-31T04:16:51.996Z,93216.71
2019-01-31T04:19:28.190Z,93214.62
2019-01-31T04:22:12.947Z,93222.34
2019-01-31T04:24:49.348Z,93216.86
2019-01-31T04:27:22.875Z,93216.98
2019-01-31T04:29:53.874Z,93216.32
2019-01-31T04:32:28.864Z,93220.34
2019-01-31T04:35:02.598Z,93214.59
2019-01-31T04:37:34.647Z,93220.36
2019-01-31T04:40:06.121Z,93226.45
2019-01-31T04:42:37.301Z,93231.45
2019-01-31T04:45:14.216Z,93224.55
2019-01-31T04:47:56.260Z,93220.04
2019-01-31T04:50:25.410Z,93209.76
2019-01-31T04:53:00.595Z,93208.48
2019-01-31T04:55:31.127Z,93209.13
2019-01-31T04:58:10.624Z,93207.67
2019-01-31T05:00:41.438Z,93204.64
2019-01-31T05:03:27.714Z,93206.40
2019-01-31T05:06:02.740Z,93215.23
2019-01-31T05:08:36.037Z,93216.83
2019-01-31T05:11:09.165Z,93229.06
2019-01-31T05:13:41.472Z,93224.05
2019-01-31T05:16:10.907Z,93229.49
2019-01-31T05:18:40.268Z,93228.05
2019-01-31T05:21:09.766Z,93233.52
2019-01-31T05:23:39.580Z,93233.67
2019-01-31T05:26:08.984Z,93229.32
2019-01-31T05:28:38.525Z,93240.55
2019-01-31T05:31:07.937Z,93238.97
2019-01-31T05:33:38.441Z,93243.95
2019-01-31T05:36:07.766Z,93246.35
2019-01-31T05:38:37.173Z,93250.69
2019-01-31T05:41:08.960Z,93255.81
2019-01-31T05:43:39.439Z,93254.68
2019-01-31T05:46:19.283Z,93251.78
2019-01-31T05:48:48.688Z,93251.11
2019-01-31T05:51:18.085Z,93249.81
2019-01-31T05:53:47.478Z,93254.95
2019-01-31T05:56:16.884Z,93258.33
2019-01-31T05:58:48.309Z,93253.96
2019-01-31T06:01:17.683Z,93265.55
2019-01-31T06:03:47.043Z,93272.77
2019-01-31T06:06:16.399Z,93269.55
2019-01-31T06:08:45.787Z,93267.64
2019-01-31T06:11:15.307Z,93256.86
2019-01-31T06:13:44.712Z,93273.89
2019-01-31T06:16:14.067Z,93268.43
2019-01-31T06:18:43.531Z,93271.30
2019-01-31T06:21:12.924Z,93267.62
2019-01-31T06:23:42.343Z,93261.94
2019-01-31T06:26:11.710Z,93264.52
2019-01-31T06:28:41.098Z,93263.41
2019-01-31T06:31:10.511Z,93267.31
2019-01-31T06:33:39.946Z,93268.57
2019-01-31T06:36:09.318Z,93281.91
2019-01-31T06:38:38.676Z,93284.52
2019-01-31T06:41:17.983Z,93291.24
2019-01-31T06:43:39.118Z,93295.72
2019-01-31T06:46:08.493Z,93297.80
2019-01-31T06:48:37.851Z,93300.17
2019-01-31T06:51:07.303Z,93300.17
2019-01-31T06:53:36.638Z,93297.75
2019-01-31T06:56:06.019Z,93295.13
2019-01-31T06:58:35.422Z,93302.48
2019-01-31T07:01:04.878Z,93306.79
2019-01-31T07:03:34.284Z,93303.55
2019-01-31T07:06:03.671Z,93297.25
2019-01-31T07:08:33.052Z,93301.06
2019-01-31T07:11:02.504Z,93299.33
2019-01-31T07:13:33.871Z,93299.30
2019-01-31T07:16:02.978Z,93307.70
2019-01-31T07:18:32.371Z,93313.84
2019-01-31T07:21:01.771Z,93317.36
2019-01-31T07:23:31.143Z,93321.33
2019-01-31T07:26:00.500Z,93330.55
2019-01-31T07:28:29.855Z,93320.48
2019-01-31T07:30:59.224Z,93310.16
2019-01-31T07:33:28.605Z,93315.09
2019-01-31T07:35:57.995Z,93304.61
2019-01-31T07:38:27.417Z,93304.80
2019-01-31T07:40:56.973Z,93313.20
2019-01-31T07:43:28.780Z,93315.63
2019-01-31T07:45:58.187Z,93321.95
2019-01-31T07:48:27.559Z,93332.69
2019-01-31T07:50:56.911Z,93325.17
2019-01-31T07:53:26.312Z,93319.84
2019-01-31T07:55:55.701Z,93311.73
2019-01-31T07:58:25.046Z,93314.59
2019-01-31T08:00:54.487Z,93310.27
2019-01-31T08:03:23.958Z,93298.28
2019-01-31T08:05:53.394Z,93306.23
2019-01-31T08:08:22.764Z,93304.25
2019-01-31T08:10:52.168Z,93304.97
2019-01-31T08:13:21.568Z,93305.41
2019-01-31T08:15:51.009Z,93295.03
2019-01-31T08:18:20.330Z,93304.02
2019-01-31T08:20:49.678Z,93303.64
2019-01-31T08:23:19.054Z,93296.66
2019-01-31T08:25:48.454Z,93294.88
2019-01-31T08:28:17.814Z,93298.42
2019-01-31T08:30:47.163Z,93298.00
2019-01-31T08:33:16.567Z,93297.52
2019-01-31T08:35:52.250Z,93300.72
2019-01-31T08:38:23.696Z,93296.28
2019-01-31T08:40:53.050Z,93304.64
2019-01-31T08:43:22.422Z,93305.83
2019-01-31T08:45:51.893Z,93311.56
2019-01-31T08:48:21.255Z,93313.62
2019-01-31T08:50:50.641Z,93311.04
2019-01-31T08:53:20.030Z,93305.45
2019-01-31T08:55:58.799Z,93303.18
2019-01-31T08:58:28.244Z,93311.49
2019-01-31T09:00:57.953Z,93309.56
2019-01-31T09:03:27.274Z,93303.69
2019-01-31T09:05:56.680Z,93306.91
2019-01-31T09:08:26.051Z,93305.50
2019-01-31T09:10:55.540Z,93303.47
2019-01-31T09:13:27.175Z,93305.14
2019-01-31T09:15:56.536Z,93305.21
2019-01-31T09:18:25.937Z,93302.88
2019-01-31T09:20:59.917Z,93300.33
2019-01-31T09:24:19.219Z,93298.83
2019-01-31T09:27:37.629Z,93312.25
2019-01-31T09:31:02.956Z,93311.83
2019-01-31T09:33:45.875Z,93304.14
2019-01-31T09:36:45.266Z,93302.70
2019-01-31T09:39:37.251Z,93299.38
2019-01-31T09:42:27.046Z,93299.95
2019-01-31T09:45:28.386Z,93293.72
2019-01-31T09:48:34.417Z,93294.25
2019-01-31T09:51:40.512Z,93296.51
2019-01-31T09:54:53.175Z,93302.04
2019-01-31T09:57:53.724Z,93289.38
2019-01-31T10:01:23.393Z,93291.89
2019-01-31T10:04:17.330Z,93285.41
2019-01-31T10:07:17.662Z,93277.17
2019-01-31T10:10:28.972Z,93274.81
2019-01-31T10:13:53.806Z,93278.03
2019-01-31T10:17:00.255Z,93271.31
2019-01-31T10:19:45.703Z,93267.19
2019-01-31T10:22:44.845Z,93255.98
2019-01-31T10:25:41.811Z,93266.81
2019-01-31T10:28:52.486Z,93265.94
2019-01-31T10:31:53.698Z,93266.81
2019-01-31T10:34:51.430Z,93267.34
2019-01-31T10:37:57.993Z,93268.44
2019-01-31T10:41:14.117Z,93269.72
2019-01-31T10:44:39.635Z,93267.86
2019-01-31T10:48:11.310Z,93263.45
2019-01-31T10:51:17.861Z,93257.73
2019-01-31T10:53:53.664Z,93258.80
2019-01-31T10:57:15.878Z,93254.95
2019-01-31T11:00:21.372Z,93258.23
2019-01-31T11:03:32.182Z,93255.75
2019-01-31T11:06:46.022Z,93264.77
2019-01-31T11:09:41.140Z,93267.10
2019-01-31T11:13:00.286Z,93256.09
2019-01-31T11:16:13.211Z,93270.08
2019-01-31T11:19:12.547Z,93261.95
2019-01-31T11:22:22.856Z,93258.42
2019-01-31T11:25:28.260Z,93258.23
2019-01-31T11:28:39.403Z,93260.31
2019-01-31T11:31:56.009Z,93262.66
2019-01-31T11:34:49.739Z,93257.08
2019-01-31T11:37:41.909Z,93257.24
2019-01-31T11:40:52.233Z,93257.66
2019-01-31T11:43:54.453Z,93246.66
2019-01-31T11:47:04.683Z,93243.02
2019-01-31T11:50:15.103Z,93251.62
2019-01-31T11:53:25.280Z,93251.38
2019-01-31T11:56:35.652Z,93252.48
2019-01-31T11:59:07.578Z,93250.14
2019-01-31T12:01:37.706Z,93248.59
2019-01-31T12:04:09.967Z,93251.23
2019-01-31T12:06:39.484Z,93248.50
2019-01-31T12:09:29.264Z,93244.92
2019-01-31T12:11:58.661Z,93247.69
2019-01-31T12:14:28.044Z,93244.53
2019-01-31T12:16:57.524Z,93241.55
2019-01-31T12:19:27.003Z,93234.09
2019-01-31T12:21:56.591Z,93235.30
2019-01-31T12:24:25.966Z,93240.87
2019-01-31T12:26:55.326Z,93235.33
2019-01-31T12:29:24.649Z,93242.41
2019-01-31T12:31:53.999Z,93242.30
2019-01-31T12:34:23.371Z,93243.02
2019-01-31T12:36:52.781Z,93242.63
2019-01-31T12:39:22.147Z,93229.93
2019-01-31T12:41:51.604Z,93233.19
2019-01-31T12:44:20.984Z,93242.03
2019-01-31T12:46:50.341Z,93235.58
2019-01-31T12:49:19.726Z,93240.95
2019-01-31T12:51:49.189Z,93238.13
2019-01-31T12:54:18.676Z,93235.78
2019-01-31T12:56:48.134Z,93236.09
2019-01-31T12:59:17.509Z,93240.37
2019-01-31T13:01:46.906Z,93234.83
2019-01-31T13:04:16.294Z,93235.48
2019-01-31T13:06:45.747Z,93241.30
2019-01-31T13:09:15.214Z,93238.01
2019-01-31T13:11:44.607Z,93240.48
2019-01-31T13:14:14.002Z,93240.57
2019-01-31T13:16:43.566Z,93242.20
2019-01-31T13:19:13.037Z,93243.48
2019-01-31T13:21:42.627Z,93243.63
2019-01-31T13:24:12.053Z,93247.99
2019-01-31T13:26:41.423Z,93245.22
2019-01-31T13:29:10.821Z,93249.70
2019-01-31T13:31:40.236Z,93257.80
2019-01-31T13:34:09.602Z,93258.20
2019-01-31T13:36:38.961Z,93254.76
2019-01-31T13:39:14.269Z,93249.85
2019-01-31T13:41:43.754Z,93250.33
2019-01-31T13:44:13.091Z,93250.41
2019-01-31T13:46:42.450Z,93248.41
2019-01-31T13:49:11.853Z,93250.02
2019-01-31T13:51:41.249Z,93250.09
2019-01-31T13:54:12.445Z,93256.75
2019-01-31T13:56:45.679Z,93256.17
2019-01-31T13:59:13.339Z,93258.91
2019-01-31T14:01:42.719Z,93263.77
2019-01-31T14:04:12.436Z,93266.36
2019-01-31T14:06:41.855Z,93265.38
2019-01-31T14:09:12.588Z,93262.55
2019-01-31T14:11:41.935Z,93266.08
2019-01-31T14:14:11.288Z,93266.16
2019-01-31T14:16:47.570Z,93269.64
2019-01-31T14:19:11.820Z,93258.71
2019-01-31T14:21:44.005Z,93263.69
2019-01-31T14:24:12.311Z,93273.35
2019-01-31T14:26:41.843Z,93274.66
2019-01-31T14:29:11.310Z,93274.22
2019-01-31T14:31:40.837Z,93269.72
2019-01-31T14:34:10.231Z,93273.36
2019-01-31T14:36:39.848Z,93274.60
2019-01-31T14:39:10.375Z,93279.69
2019-01-31T14:41:39.760Z,93280.31
2019-01-31T14:44:19.879Z,93287.14
2019-01-31T14:46:40.624Z,93284.69
2019-01-31T14:49:10.050Z,93288.44
2019-01-31T14:51:39.447Z,93294.59
2019-01-31T14:54:08.808Z,93290.66
2019-01-31T14:56:38.175Z,93300.61
2019-01-31T14:59:07.595Z,93304.58
2019-01-31T15:01:37.049Z,93309.06
2019-01-31T15:04:06.561Z,93305.73
2019-01-31T15:06:36.045Z,93307.47
2019-01-31T15:09:08.850Z,93315.45
2019-01-31T15:11:38.419Z,93315.95
2019-01-31T15:14:07.963Z,93319.67
2019-01-31T15:16:37.346Z,93327.88
2019-01-31T15:19:06.730Z,93333.77
2019-01-31T15:21:36.128Z,93339.38
2019-01-31T15:24:05.773Z,93350.16
2019-01-31T15:26:35.135Z,93389.45
2019-01-31T15:29:05.019Z,93388.35
2019-01-31T15:31:35.834Z,93400.22
2019-01-31T15:34:05.525Z,93419.77
2019-01-31T15:36:34.912Z,93426.92
2019-01-31T15:39:07.002Z,93432.50
2019-01-31T15:41:36.395Z,93427.48
2019-01-31T15:44:07.547Z,93431.04
2019-01-31T15:46:40.188Z,93433.88
2019-01-31T15:49:09.667Z,93438.52
2019-01-31T15:51:39.186Z,93449.60
2019-01-31T15:54:08.743Z,93454.56
2019-01-31T15:56:38.229Z,93462.70
2019-01-31T15:59:08.954Z,93475.30
2019-01-31T16:01:38.298Z,93464.34
2019-01-31T16:04:07.793Z,93469.77
2019-01-31T16:06:37.209Z,93479.63
2019-01-31T16:09:09.383Z,93476.42
2019-01-31T16:11:38.799Z,93483.20
2019-01-31T16:14:08.291Z,93493.30
2019-01-31T16:16:37.751Z,93488.66
2019-01-31T16:19:07.123Z,93491.24
2019-01-31T16:21:36.508Z,93488.41
2019-01-31T16:24:06.087Z,93495.02
2019-01-31T16:26:36.309Z,93504.34
2019-01-31T16:29:05.926Z,93503.22
2019-01-31T16:31:38.452Z,93516.73
2019-01-31T16:34:07.770Z,93510.98
2019-01-31T16:36:37.147Z,93515.68
2019-01-31T16:39:09.770Z,93516.47
2019-01-31T16:41:39.256Z,93522.78
2019-01-31T16:44:10.247Z,93518.50
2019-01-31T16:46:39.695Z,93522.03
2019-01-31T16:49:09.075Z,93526.06
2019-01-31T16:51:38.580Z,93531.03
2019-01-31T16:54:07.877Z,93541.03
2019-01-31T16:56:37.322Z,93536.75
2019-01-31T16:59:06.679Z,93534.66
2019-01-31T17:01:36.137Z,93539.17
2019-01-31T17:04:06.015Z,93549.28
2019-01-31T17:06:35.388Z,93540.81
2019-01-31T17:09:08.064Z,93540.38
2019-01-31T17:11:40.299Z,93566.48
2019-01-31T17:14:09.699Z,93547.91
2019-01-31T17:16:39.050Z,93554.85
2019-01-31T17:19:08.482Z,93553.13
2019-01-31T17:21:38.127Z,93565.19
2019-01-31T17:24:07.504Z,93565.99
2019-01-31T17:26:36.874Z,93566.84
2019-01-31T17:29:06.456Z,93563.16
2019-01-31T17:31:36.106Z,93572.17
2019-01-31T17:34:05.512Z,93567.09
2019-01-31T17:36:34.983Z,93571.28
2019-01-31T17:39:06.908Z,93572.76
2019-01-31T17:41:36.295Z,93571.81
2019-01-31T17:44:05.841Z,93584.22
2019-01-31T17:46:35.209Z,93585.19
2019-01-31T17:49:05.469Z,93589.54
2019-01-31T17:51:34.959Z,93601.27
2019-01-31T17:54:04.764Z,93596.95
2019-01-31T17:56:34.093Z,93597.13
2019-01-31T17:59:03.460Z,93601.48
2019-01-31T18:01:32.857Z,93609.83
2019-01-31T18:04:02.306Z,93612.89
2019-01-31T18:06:31.709Z,93615.17
2019-01-31T18:09:01.106Z,93619.48
2019-01-31T18:11:30.464Z,93620.82
2019-01-31T18:13:59.904Z,93624.01
2019-01-31T18:16:29.307Z,93619.04
2019-01-31T18:18:58.694Z,93628.20
2019-01-31T18:21:28.171Z,93644.09
2019-01-31T18:23:57.548Z,93640.56
2019-01-31T18:26:26.955Z,93648.28
2019-01-31T18:28:56.425Z,93642.35
2019-01-31T18:31:25.774Z,93647.16
2019-01-31T18:33:55.287Z,93651.80
2019-01-31T18:36:24.695Z,93649.56
2019-01-31T18:38:54.121Z,93659.34
2019-01-31T18:41:23.560Z,93659.17
2019-01-31T18:43:52.965Z,93660.16
2019-01-31T18:46:22.352Z,93660.49
2019-01-31T18:48:51.704Z,93664.97
2019-01-31T18:51:21.179Z,93656.59
2019-01-31T18:53:50.586Z,93669.15
2019-01-31T18:56:20.025Z,93670.23
2019-01-31T18:58:49.820Z,93676.81
2019-01-31T19:01:19.279Z,93677.30
2019-01-31T19:03:48.669Z,93674.22
2019-01-31T19:06:18.045Z,93685.78
2019-01-31T19:08:47.463Z,93684.18
2019-01-31T19:11:16.881Z,93692.39
2019-01-31T19:13:46.262Z,93692.90
2019-01-31T19:16:15.708Z,93686.04
2019-01-31T19:18:45.271Z,93688.78
2019-01-31T19:21:14.683Z,93688.46
2019-01-31T19:23:44.127Z,93699.25
2019-01-31T19:26:13.624Z,93702.48
2019-01-31T19:28:43.049Z,93701.20
2019-01-31T19:31:12.439Z,93696.34
2019-01-31T19:33:41.886Z,93701.80
2019-01-31T19:36:11.218Z,93701.47
2019-01-31T19:38:40.798Z,93710.56
2019-01-31T19:41:10.190Z,93709.42
2019-01-31T19:43:39.657Z,93723.16
2019-01-31T19:46:16.071Z,93730.64
2019-01-31T19:48:40.306Z,93727.83
2019-01-31T19:51:10.120Z,93734.56
2019-01-31T19:53:39.533Z,93740.13
2019-01-31T19:56:08.947Z,93734.72
2019-01-31T19:58:38.396Z,93744.81
2019-01-31T20:01:08.188Z,93750.81
2019-01-31T20:03:37.551Z,93750.27
2019-01-31T20:06:06.982Z,93756.33
2019-01-31T20:08:36.492Z,93751.02
2019-01-31T20:11:05.980Z,93748.45
2019-01-31T20:13:35.418Z,93753.37
2019-01-31T20:16:05.164Z,93752.09
2019-01-31T20:18:37.842Z,93755.72
2019-01-31T20:21:07.364Z,93758.87
2019-01-31T20:23:36.802Z,93763.78
2019-01-31T20:26:06.219Z,93780.34
2019-01-31T20:28:35.596Z,93772.11
2019-01-31T20:31:05.179Z,93787.64
2019-01-31T20:33:34.560Z,93788.81
2019-01-31T20:36:04.053Z,93787.34
2019-01-31T20:38:33.520Z,93801.55
2019-01-31T20:41:02.917Z,93799.30
2019-01-31T20:43:32.315Z,93808.25
2019-01-31T20:46:01.723Z,93806.36
2019-01-31T20:48:31.130Z,93810.59
2019-01-31T20:51:00.496Z,93817.05
2019-01-31T20:53:30.065Z,93818.70
2019-01-31T20:55:59.766Z,93820.81
2019-01-31T20:58:29.322Z,93819.61
2019-01-31T21:00:58.732Z,93821.91
2019-01-31T21:03:28.272Z,93819.57
2019-01-31T21:05:57.803Z,93826.06
2019-01-31T21:08:27.193Z,93843.83
2019-01-31T21:10:56.580Z,93845.60
2019-01-31T21:13:26.153Z,93851.63
2019-01-31T21:15:55.862Z,93855.19
2019-01-31T21:18:25.302Z,93859.48
2019-01-31T21:20:55.364Z,93862.64
2019-01-31T21:23:27.502Z,93867.58
2019-01-31T21:25:57.344Z,93873.84
2019-01-31T21:28:26.896Z,93878.55
2019-01-31T21:30:56.473Z,93888.31
2019-01-31T21:33:25.968Z,93897.58
2019-01-31T21:35:55.418Z,93897.80
2019-01-31T21:38:28.200Z,93903.99
2019-01-31T21:41:01.332Z,93911.30
2019-01-31T21:43:30.869Z,93902.87
2019-01-31T21:46:00.390Z,93913.47
2019-01-31T21:48:30.496Z,93917.51
2019-01-31T21:51:00.109Z,93920.88
2019-01-31T21:53:36.469Z,93928.30
2019-01-31T21:56:02.881Z,93923.62
2019-01-31T21:58:32.279Z,93927.09
2019-01-31T22:01:04.758Z,93933.28
2019-01-31T22:03:34.325Z,93933.33
2019-01-31T22:06:03.777Z,93939.56
2019-01-31T22:08:33.244Z,93942.70
2019-01-31T22:11:02.786Z,93947.00
2019-01-31T22:13:32.234Z,93947.64
2019-01-31T22:16:01.594Z,93949.23
2019-01-31T22:18:33.128Z,93951.88
2019-01-31T22:21:05.274Z,93961.92
2019-01-31T22:23:34.681Z,93958.98
2019-01-31T22:26:04.088Z,93964.53
2019-01-31T22:28:33.469Z,93966.91
2019-01-31T22:31:02.819Z,93966.87
2019-01-31T22:33:32.205Z,93974.95
2019-01-31T22:36:02.267Z,93971.44
2019-01-31T22:38:31.650Z,93953.56
2019-01-31T22:41:03.302Z,93970.56
2019-01-31T22:43:32.690Z,93975.66
2019-01-31T22:46:02.109Z,93975.52
2019-01-31T22:48:31.507Z,93979.27
2019-01-31T22:51:03.405Z,93981.53
2019-01-31T22:53:32.798Z,93988.53
2019-01-31T22:56:02.210Z,93992.35
2019-01-31T22:58:31.593Z,93990.67
2019-01-31T23:01:33.575Z,93990.69
2019-01-31T23:04:03.004Z,93992.72
2019-01-31T23:06:32.384Z,93999.12
2019-01-31T23:09:01.784Z,93994.00
2019-01-31T23:11:31.330Z,93998.13
2019-01-31T23:14:00.751Z,94003.86
2019-01-31T23:16:30.134Z,93996.56
2019-01-31T23:18:59.483Z,93999.28
2019-01-31T23:21:28.894Z,93997.48
2019-01-31T23:23:58.307Z,94007.31
2019-01-31T23:26:27.701Z,94005.63
2019-01-31T23:28:57.114Z,94004.63
2019-01-31T23:31:26.645Z,94003.28
2019-01-31T23:33:56.039Z,94008.33
2019-01-31T23:36:25.474Z,94007.94
2019-01-31T23:38:54.910Z,94011.98
2019-01-31T23:41:24.343Z,94008.05
2019-01-31T23:43:53.815Z,94014.01
2019-01-31T23:46:23.177Z,94009.28
2019-01-31T23:48:52.573Z,94016.50
2019-01-31T23:51:22.004Z,94015.36
2019-01-31T23:53:51.367Z,94014.76
2019-01-31T23:56:20.881Z,94020.81
2019-01-31T23:58:50.307Z,94026.42
